createdAt,value
2024-01-26T00:01:06.152Z,99042.33
2024-01-26T00:03:44.519Z,99040.46
2024-01-26T00:06:12.350Z,99042.49
2024-01-26T00:08:40.180Z,99049.60
2024-01-26T00:11:15.006Z,99054.84
2024-01-26T00:13:42.996Z,99055.70
2024-01-26T00:16:10.839Z,99058.41
2024-01-26T00:18:40.195Z,99059.10
2024-01-26T00:21:08.581Z,99058.42
2024-01-26T00:23:36.208Z,99061.98
2024-01-26T00:26:04.002Z,99068.08
2024-01-26T00:28:31.641Z,99071.79
2024-01-26T00:30:59.858Z,99071.46
2024-01-26T00:33:27.640Z,99071.47
2024-01-26T00:35:55.323Z,99076.20
2024-01-26T00:38:23.012Z,99074.17
2024-01-26T00:40:50.762Z,99077.91
2024-01-26T00:43:19.867Z,99078.23
2024-01-26T00:45:47.566Z,99079.06
2024-01-26T00:48:15.315Z,99078.40
2024-01-26T00:50:43.249Z,99081.78
2024-01-26T00:53:11.017Z,99089.55
2024-01-26T00:55:38.808Z,99092.59
2024-01-26T00:58:06.481Z,99098.02
2024-01-26T01:00:34.295Z,99097.33
2024-01-26T01:03:02.001Z,99096.82
2024-01-26T01:05:29.786Z,99095.80
2024-01-26T01:07:57.800Z,99098.52
2024-01-26T01:10:25.612Z,99098.70
2024-01-26T01:12:53.309Z,99104.29
2024-01-26T01:15:21.014Z,99103.45
2024-01-26T01:17:49.114Z,99104.47
2024-01-26T01:20:17.188Z,99108.03
2024-01-26T01:22:44.928Z,99113.77
2024-01-26T01:25:12.762Z,99112.94
2024-01-26T01:27:40.954Z,99118.52
2024-01-26T01:30:09.682Z,99115.99
2024-01-26T01:32:37.635Z,99114.48
2024-01-26T01:35:05.794Z,99115.84
2024-01-26T01:37:33.684Z,99120.06
2024-01-26T01:40:01.313Z,99125.80
2024-01-26T01:42:29.035Z,99122.23
2024-01-26T01:44:57.122Z,99124.95
2024-01-26T01:47:24.830Z,99126.29
2024-01-26T01:49:52.442Z,99128.31
2024-01-26T01:52:21.547Z,99127.98
2024-01-26T01:54:50.486Z,99124.09
2024-01-26T01:57:20.585Z,99122.07
2024-01-26T01:59:48.276Z,99121.91
2024-01-26T02:02:15.964Z,99120.39
2024-01-26T02:04:43.844Z,99120.89
2024-01-26T02:07:11.551Z,99119.70
2024-01-26T02:09:39.187Z,99124.59
2024-01-26T02:12:07.176Z,99122.23
2024-01-26T02:14:34.878Z,99123.92
2024-01-26T02:17:03.578Z,99126.45
2024-01-26T02:19:33.476Z,99128.65
2024-01-26T02:22:01.156Z,99129.15
2024-01-26T02:24:28.832Z,99128.98
2024-01-26T02:26:56.478Z,99123.77
2024-01-26T02:29:24.152Z,99123.96
2024-01-26T02:31:51.800Z,99128.38
2024-01-26T02:34:19.789Z,99130.23
2024-01-26T02:36:47.517Z,99131.92
2024-01-26T02:39:15.154Z,99132.60
2024-01-26T02:41:42.858Z,99131.23
2024-01-26T02:44:10.547Z,99132.58
2024-01-26T02:46:38.260Z,99129.05
2024-01-26T02:49:05.993Z,99128.04
2024-01-26T02:51:33.810Z,99132.92
2024-01-26T02:56:30.319Z,99136.30
2024-01-26T02:58:57.969Z,99135.98
2024-01-26T03:01:25.769Z,99138.50
2024-01-26T03:03:53.565Z,99141.38
2024-01-26T03:06:21.326Z,99139.69
2024-01-26T03:08:49.033Z,99148.47
2024-01-26T03:11:16.805Z,99145.42
2024-01-26T03:13:44.415Z,99151.51
2024-01-26T03:16:12.059Z,99160.61
2024-01-26T03:18:39.927Z,99159.10
2024-01-26T03:21:07.846Z,99159.77
2024-01-26T03:23:35.597Z,99157.25
2024-01-26T03:26:03.340Z,99153.36
2024-01-26T03:28:31.059Z,99153.88
2024-01-26T03:30:58.729Z,99154.90
2024-01-26T03:33:26.523Z,99162.84
2024-01-26T03:35:54.313Z,99165.71
2024-01-26T03:38:22.008Z,99164.88
2024-01-26T03:40:49.795Z,99169.79
2024-01-26T03:43:17.484Z,99172.98
2024-01-26T03:45:45.243Z,99170.27
2024-01-26T03:48:13.053Z,99178.22
2024-01-26T03:50:40.862Z,99178.39
2024-01-26T03:53:08.635Z,99181.09
2024-01-26T03:55:37.374Z,99183.63
2024-01-26T03:58:05.290Z,99184.29
2024-01-26T04:00:32.948Z,99180.41
2024-01-26T04:03:00.766Z,99181.75
2024-01-26T04:05:28.668Z,99184.81
2024-01-26T04:07:56.383Z,99186.17
2024-01-26T04:10:24.018Z,99185.16
2024-01-26T04:12:51.717Z,99193.11
2024-01-26T04:15:19.424Z,99192.60
2024-01-26T04:17:47.173Z,99196.64
2024-01-26T04:20:15.089Z,99202.89
2024-01-26T04:22:43.653Z,99197.65
2024-01-26T04:25:11.318Z,99204.24
2024-01-26T04:27:38.976Z,99202.05
2024-01-26T04:30:07.339Z,99202.05
2024-01-26T04:32:35.151Z,99205.77
2024-01-26T04:35:02.836Z,99204.74
2024-01-26T04:37:30.569Z,99209.47
2024-01-26T04:39:58.189Z,99212.19
2024-01-26T04:42:25.863Z,99218.42
2024-01-26T04:44:53.547Z,99217.75
2024-01-26T04:47:21.212Z,99219.61
2024-01-26T04:49:49.054Z,99218.94
2024-01-26T04:52:16.806Z,99221.98
2024-01-26T04:54:44.461Z,99217.61
2024-01-26T04:57:12.180Z,99218.61
2024-01-26T04:59:40.052Z,99222.34
2024-01-26T05:02:07.747Z,99224.02
2024-01-26T05:04:35.426Z,99223.52
2024-01-26T05:07:03.424Z,99225.04
2024-01-26T05:09:31.135Z,99227.41
2024-01-26T05:11:58.885Z,99227.23
2024-01-26T05:14:26.550Z,99227.08
2024-01-26T05:16:54.256Z,99230.97
2024-01-26T05:19:21.999Z,99231.30
2024-01-26T05:21:49.697Z,99233.31
2024-01-26T05:24:17.410Z,99232.82
2024-01-26T05:26:45.104Z,99233.84
2024-01-26T05:29:12.880Z,99235.02
2024-01-26T05:31:41.151Z,99236.88
2024-01-26T05:34:09.621Z,99238.06
2024-01-26T05:36:43.863Z,99234.36
2024-01-26T05:39:12.195Z,99230.63
2024-01-26T05:41:40.012Z,99228.44
2024-01-26T05:44:07.687Z,99229.79
2024-01-26T05:46:35.382Z,99233.69
2024-01-26T05:49:05.406Z,99232.51
2024-01-26T05:51:35.089Z,99232.66
2024-01-26T05:54:02.795Z,99236.54
2024-01-26T05:56:30.538Z,99236.73
2024-01-26T05:58:58.326Z,99240.11
2024-01-26T06:01:25.977Z,99240.60
2024-01-26T06:03:53.728Z,99248.21
2024-01-26T06:06:21.686Z,99249.23
2024-01-26T06:08:49.417Z,99252.41
2024-01-26T06:11:17.089Z,99256.46
2024-01-26T06:13:44.954Z,99255.61
2024-01-26T06:16:15.672Z,99261.37
2024-01-26T06:18:43.655Z,99261.55
2024-01-26T06:21:12.409Z,99261.38
2024-01-26T06:23:40.282Z,99258.33
2024-01-26T06:26:07.976Z,99254.45
2024-01-26T06:28:35.655Z,99251.05
2024-01-26T06:31:03.430Z,99252.23
2024-01-26T06:33:31.340Z,99258.98
2024-01-26T06:35:59.182Z,99261.69
2024-01-26T06:38:26.878Z,99263.38
2024-01-26T06:40:54.539Z,99267.42
2024-01-26T06:43:22.205Z,99269.29
2024-01-26T06:45:49.840Z,99272.33
2024-01-26T06:48:17.561Z,99274.88
2024-01-26T06:50:45.369Z,99273.86
2024-01-26T06:53:13.095Z,99274.20
2024-01-26T06:55:40.985Z,99269.47
2024-01-26T06:58:08.636Z,99269.30
2024-01-26T07:00:36.503Z,99269.79
2024-01-26T07:03:04.621Z,99268.77
2024-01-26T07:05:32.583Z,99274.34
2024-01-26T07:08:00.408Z,99278.06
2024-01-26T07:10:28.102Z,99277.90
2024-01-26T07:12:55.786Z,99281.29
2024-01-26T07:15:23.467Z,99285.34
2024-01-26T07:17:51.614Z,99289.39
2024-01-26T07:20:19.461Z,99288.88
2024-01-26T07:22:47.236Z,99283.64
2024-01-26T07:25:14.950Z,99287.86
2024-01-26T07:27:42.746Z,99290.73
2024-01-26T07:30:10.937Z,99291.23
2024-01-26T07:32:38.674Z,99289.20
2024-01-26T07:35:07.078Z,99289.20
2024-01-26T07:37:34.928Z,99287.00
2024-01-26T07:40:02.743Z,99284.45
2024-01-26T07:42:30.529Z,99281.23
2024-01-26T07:44:58.433Z,99285.95
2024-01-26T07:47:28.143Z,99284.93
2024-01-26T07:49:56.204Z,99287.13
2024-01-26T07:52:23.862Z,99285.77
2024-01-26T07:54:51.661Z,99289.14
2024-01-26T07:57:19.508Z,99289.97
2024-01-26T07:59:47.276Z,99292.84
2024-01-26T08:02:15.056Z,99288.09
2024-01-26T08:04:43.163Z,99286.59
2024-01-26T08:07:10.924Z,99285.73
2024-01-26T08:09:38.717Z,99287.09
2024-01-26T08:12:06.885Z,99284.03
2024-01-26T08:14:34.708Z,99284.35
2024-01-26T08:17:02.532Z,99280.30
2024-01-26T08:19:30.577Z,99278.08
2024-01-26T08:21:58.554Z,99278.40
2024-01-26T08:24:26.256Z,99283.45
2024-01-26T08:26:54.035Z,99283.27
2024-01-26T08:29:21.991Z,99281.72
2024-01-26T08:31:49.689Z,99277.15
2024-01-26T08:34:17.540Z,99277.30
2024-01-26T08:36:45.323Z,99278.81
2024-01-26T08:39:13.114Z,99284.21
2024-01-26T08:41:41.451Z,99283.52
2024-01-26T08:44:09.153Z,99285.52
2024-01-26T08:46:36.952Z,99288.88
2024-01-26T08:49:05.043Z,99286.64
2024-01-26T08:51:33.299Z,99286.94
2024-01-26T08:54:01.317Z,99284.34
2024-01-26T08:56:29.145Z,99282.95
2024-01-26T08:58:58.644Z,99281.41
2024-01-26T09:01:27.376Z,99280.04
2024-01-26T09:03:55.106Z,99281.18
2024-01-26T09:06:22.994Z,99283.48
2024-01-26T09:08:50.901Z,99276.98
2024-01-26T09:11:18.595Z,99275.73
2024-01-26T09:13:46.222Z,99274.53
2024-01-26T09:16:13.890Z,99275.00
2024-01-26T09:18:44.078Z,99274.98
2024-01-26T09:21:12.567Z,99275.46
2024-01-26T09:23:41.346Z,99277.16
2024-01-26T09:26:09.110Z,99272.91
2024-01-26T09:28:37.041Z,99273.44
2024-01-26T09:31:05.707Z,99275.12
2024-01-26T09:33:34.279Z,99272.08
2024-01-26T09:36:02.213Z,99265.98
2024-01-26T09:38:29.983Z,99265.63
2024-01-26T09:40:57.763Z,99261.52
2024-01-26T09:43:25.508Z,99257.61
2024-01-26T09:45:53.161Z,99261.20
2024-01-26T09:48:21.064Z,99261.02
2024-01-26T09:50:49.195Z,99260.21
2024-01-26T09:53:17.509Z,99263.10
2024-01-26T09:55:47.655Z,99255.28
2024-01-26T09:58:16.226Z,99251.46
2024-01-26T10:00:44.525Z,99248.86
2024-01-26T10:03:12.577Z,99248.81
2024-01-26T10:05:40.604Z,99247.43
2024-01-26T10:08:09.497Z,99241.77
2024-01-26T10:10:37.850Z,99241.55
2024-01-26T10:13:06.120Z,99238.84
2024-01-26T10:15:34.307Z,99234.77
2024-01-26T10:18:02.791Z,99230.50
2024-01-26T10:20:30.746Z,99226.05
2024-01-26T10:22:58.862Z,99227.59
2024-01-26T10:25:26.658Z,99225.59
2024-01-26T10:27:54.536Z,99231.85
2024-01-26T10:30:22.666Z,99233.52
2024-01-26T10:32:52.664Z,99230.24
2024-01-26T10:35:23.358Z,99221.16
2024-01-26T10:37:51.574Z,99214.23
2024-01-26T10:40:20.704Z,99207.80
2024-01-26T10:42:48.827Z,99199.80
2024-01-26T10:45:17.025Z,99201.05
2024-01-26T10:47:47.834Z,99197.43
2024-01-26T10:50:16.314Z,99196.48
2024-01-26T10:52:45.054Z,99195.41
2024-01-26T10:55:12.982Z,99188.16
2024-01-26T10:57:40.621Z,99190.42
2024-01-26T11:00:09.693Z,99187.12
2024-01-26T11:02:37.760Z,99177.64
2024-01-26T11:05:08.790Z,99178.11
2024-01-26T11:07:38.077Z,99175.77
2024-01-26T11:10:09.435Z,99170.52
2024-01-26T11:12:37.147Z,99168.81
2024-01-26T11:15:08.779Z,99164.30
2024-01-26T11:17:54.155Z,99166.41
2024-01-26T11:20:24.279Z,99162.60
2024-01-26T11:23:15.587Z,99155.44
2024-01-26T11:25:58.276Z,99141.58
2024-01-26T11:28:27.315Z,99142.36
2024-01-26T11:30:56.238Z,99136.84
2024-01-26T11:33:24.279Z,99136.36
2024-01-26T11:36:03.710Z,99133.92
2024-01-26T11:38:32.788Z,99141.88
2024-01-26T11:41:01.775Z,99146.34
2024-01-26T11:43:30.071Z,99145.65
2024-01-26T11:45:58.204Z,99147.83
2024-01-26T11:48:26.914Z,99142.69
2024-01-26T11:50:55.072Z,99138.03
2024-01-26T11:53:23.189Z,99136.83
2024-01-26T11:55:51.749Z,99131.64
2024-01-26T11:58:19.998Z,99131.05
2024-01-26T12:00:47.924Z,99131.61
2024-01-26T12:03:18.715Z,99128.26
2024-01-26T12:05:46.891Z,99121.77
2024-01-26T12:08:15.039Z,99115.99
2024-01-26T12:10:43.731Z,99115.70
2024-01-26T12:13:13.864Z,99114.06
2024-01-26T12:15:42.252Z,99112.45
2024-01-26T12:18:12.016Z,99106.04
2024-01-26T12:20:41.114Z,99099.89
2024-01-26T12:23:16.499Z,99095.63
2024-01-26T12:25:44.542Z,99089.69
2024-01-26T12:28:12.392Z,99083.50
2024-01-26T12:30:40.409Z,99087.20
2024-01-26T12:33:09.065Z,99090.98
2024-01-26T12:35:38.682Z,99080.46
2024-01-26T12:38:06.623Z,99068.10
2024-01-26T12:40:34.413Z,99058.80
2024-01-26T12:43:02.252Z,99047.39
2024-01-26T12:45:30.375Z,99044.39
2024-01-26T12:47:58.161Z,99036.77
2024-01-26T12:50:25.916Z,99027.73
2024-01-26T12:52:53.833Z,99022.51
2024-01-26T12:55:21.722Z,99022.20
2024-01-26T12:57:49.379Z,99015.60
2024-01-26T13:00:17.739Z,99018.70
2024-01-26T13:02:45.473Z,99016.23
2024-01-26T13:05:13.169Z,99009.85
2024-01-26T13:07:40.896Z,99004.55
2024-01-26T13:10:09.031Z,98994.32
2024-01-26T13:12:36.720Z,98989.44
2024-01-26T13:15:04.631Z,98981.46
2024-01-26T13:17:32.308Z,98972.23
2024-01-26T13:20:05.603Z,98963.54
2024-01-26T13:22:40.264Z,98964.00
2024-01-26T13:25:08.407Z,98961.85
2024-01-26T13:27:36.036Z,98958.17
2024-01-26T13:30:04.278Z,98957.79
2024-01-26T13:32:32.225Z,98954.94
2024-01-26T13:34:59.938Z,98950.48
2024-01-26T13:37:27.679Z,98948.46
2024-01-26T13:39:55.359Z,98942.84
2024-01-26T13:42:23.157Z,98941.24
2024-01-26T13:44:50.937Z,98936.83
2024-01-26T13:47:18.581Z,98941.61
2024-01-26T13:49:46.499Z,98941.75
2024-01-26T13:52:14.289Z,98937.55
2024-01-26T13:54:42.061Z,98931.83
2024-01-26T13:57:09.809Z,98933.71
2024-01-26T13:59:37.514Z,98937.88
2024-01-26T14:02:05.414Z,98937.88
2024-01-26T14:04:33.125Z,98929.17
2024-01-26T14:07:01.191Z,98916.30
2024-01-26T14:09:28.878Z,98914.14
2024-01-26T14:11:56.631Z,98909.65
2024-01-26T14:14:24.274Z,98909.56
2024-01-26T14:16:52.152Z,98909.18
2024-01-26T14:19:20.488Z,98900.20
2024-01-26T14:21:48.494Z,98895.92
2024-01-26T14:24:16.206Z,98890.70
2024-01-26T14:26:43.926Z,98883.30
2024-01-26T14:29:11.578Z,98875.89
2024-01-26T14:31:39.289Z,98874.55
2024-01-26T14:34:07.201Z,98868.89
2024-01-26T14:36:34.971Z,98867.80
2024-01-26T14:39:02.652Z,98861.89
2024-01-26T14:41:30.412Z,98849.48
2024-01-26T14:43:58.175Z,98844.17
2024-01-26T14:46:25.813Z,98838.73
2024-01-26T14:48:53.997Z,98843.79
2024-01-26T14:51:22.108Z,98847.31
2024-01-26T14:53:49.948Z,98842.52
2024-01-26T14:56:17.836Z,98836.85
2024-01-26T14:58:45.457Z,98838.65
2024-01-26T15:01:13.127Z,98835.72
2024-01-26T15:03:41.141Z,98829.05
2024-01-26T15:06:09.143Z,98826.27
2024-01-26T15:08:37.164Z,98826.22
2024-01-26T15:11:05.063Z,98824.98
2024-01-26T15:13:37.443Z,98813.92
2024-01-26T15:16:06.960Z,98810.13
2024-01-26T15:18:34.703Z,98797.86
2024-01-26T15:21:02.603Z,98788.80
2024-01-26T15:23:30.426Z,98782.42
2024-01-26T15:25:58.074Z,98775.24
2024-01-26T15:28:25.819Z,98762.50
2024-01-26T15:30:53.483Z,98764.98
2024-01-26T15:33:21.330Z,98762.88
2024-01-26T15:35:49.080Z,98757.05
2024-01-26T15:38:16.717Z,98752.39
2024-01-26T15:40:45.096Z,98747.23
2024-01-26T15:43:12.955Z,98745.59
2024-01-26T15:45:40.567Z,98741.92
2024-01-26T15:48:08.786Z,98743.64
2024-01-26T15:50:36.611Z,98738.44
2024-01-26T15:53:04.517Z,98729.83
2024-01-26T15:55:32.179Z,98728.80
2024-01-26T15:57:59.856Z,98730.14
2024-01-26T16:00:27.744Z,98719.16
2024-01-26T16:02:55.616Z,98713.89
2024-01-26T16:05:23.914Z,98709.32
2024-01-26T16:07:51.709Z,98704.92
2024-01-26T16:10:19.343Z,98703.73
2024-01-26T16:12:47.022Z,98703.05
2024-01-26T16:15:15.075Z,98700.37
2024-01-26T16:17:42.985Z,98696.35
2024-01-26T16:20:11.884Z,98693.63
2024-01-26T16:22:39.586Z,98688.89
2024-01-26T16:25:07.998Z,98691.58
2024-01-26T16:27:35.715Z,98687.02
2024-01-26T16:30:03.751Z,98689.55
2024-01-26T16:32:31.463Z,98682.80
2024-01-26T16:34:59.245Z,98679.57
2024-01-26T16:37:27.812Z,98668.92
2024-01-26T16:39:56.482Z,98669.10
2024-01-26T16:42:24.257Z,98671.61
2024-01-26T16:44:52.273Z,98667.20
2024-01-26T16:47:19.938Z,98667.88
2024-01-26T16:49:47.740Z,98656.73
2024-01-26T16:52:15.511Z,98646.95
2024-01-26T16:54:43.473Z,98645.61
2024-01-26T16:57:11.253Z,98648.51
2024-01-26T16:59:39.065Z,98643.29
2024-01-26T17:02:07.385Z,98641.13
2024-01-26T17:04:35.105Z,98634.70
2024-01-26T17:07:03.536Z,98630.48
2024-01-26T17:09:31.472Z,98624.60
2024-01-26T17:11:59.243Z,98612.10
2024-01-26T17:14:27.023Z,98612.59
2024-01-26T17:16:55.156Z,98612.06
2024-01-26T17:19:22.952Z,98616.63
2024-01-26T17:21:50.802Z,98612.91
2024-01-26T17:24:18.494Z,98612.23
2024-01-26T17:26:46.255Z,98610.52
2024-01-26T17:29:13.926Z,98607.31
2024-01-26T17:31:41.761Z,98607.29
2024-01-26T17:34:09.582Z,98609.26
2024-01-26T17:36:37.423Z,98597.18
2024-01-26T17:39:05.223Z,98584.92
2024-01-26T17:41:32.922Z,98575.73
2024-01-26T17:44:00.548Z,98576.70
2024-01-26T17:46:28.214Z,98577.02
2024-01-26T17:48:58.985Z,98571.71
2024-01-26T17:51:26.918Z,98566.41
2024-01-26T17:53:54.630Z,98562.61
2024-01-26T17:56:22.334Z,98565.39
2024-01-26T17:58:50.028Z,98560.59
2024-01-26T18:01:18.438Z,98561.35
2024-01-26T18:03:46.329Z,98559.80
2024-01-26T18:06:14.111Z,98562.45
2024-01-26T18:08:41.975Z,98558.00
2024-01-26T18:11:09.706Z,98559.85
2024-01-26T18:13:37.350Z,98556.27
2024-01-26T18:16:05.509Z,98551.32
2024-01-26T18:18:34.360Z,98545.04
2024-01-26T18:21:02.474Z,98543.31
2024-01-26T18:23:30.137Z,98541.58
2024-01-26T18:25:57.851Z,98543.14
2024-01-26T18:28:25.565Z,98543.67
2024-01-26T18:30:53.294Z,98543.54
2024-01-26T18:33:21.635Z,98540.90
2024-01-26T18:35:49.439Z,98538.59
2024-01-26T18:38:19.617Z,98538.31
2024-01-26T18:40:49.339Z,98534.17
2024-01-26T18:43:16.999Z,98534.39
2024-01-26T18:45:44.932Z,98527.20
2024-01-26T18:48:12.828Z,98518.85
2024-01-26T18:50:40.675Z,98515.88
2024-01-26T18:53:08.327Z,98518.95
2024-01-26T18:55:36.172Z,98519.14
2024-01-26T18:58:04.363Z,98515.14
2024-01-26T19:00:32.779Z,98513.32
2024-01-26T19:03:00.847Z,98511.15
2024-01-26T19:05:29.576Z,98511.55
2024-01-26T19:07:57.217Z,98508.70
2024-01-26T19:10:25.530Z,98500.13
2024-01-26T19:12:53.405Z,98504.05
2024-01-26T19:15:21.193Z,98512.87
2024-01-26T19:17:49.456Z,98514.91
2024-01-26T19:20:17.523Z,98512.39
2024-01-26T19:22:45.422Z,98504.75
2024-01-26T19:25:13.737Z,98499.00
2024-01-26T19:27:41.773Z,98491.38
2024-01-26T19:30:10.165Z,98487.80
2024-01-26T19:32:38.874Z,98488.60
2024-01-26T19:35:06.784Z,98485.86
2024-01-26T19:37:35.345Z,98485.17
2024-01-26T19:40:03.478Z,98489.04
2024-01-26T19:42:31.745Z,98490.19
2024-01-26T19:44:59.899Z,98490.20
2024-01-26T19:47:27.713Z,98488.30
2024-01-26T19:49:55.669Z,98489.98
2024-01-26T19:52:23.506Z,98482.19
2024-01-26T19:54:51.180Z,98483.69
2024-01-26T19:57:18.957Z,98488.10
2024-01-26T19:59:47.142Z,98497.04
2024-01-26T20:02:14.847Z,98500.59
2024-01-26T20:04:43.117Z,98503.29
2024-01-26T20:07:10.974Z,98503.12
2024-01-26T20:09:39.732Z,98495.66
2024-01-26T20:12:08.149Z,98503.77
2024-01-26T20:14:35.888Z,98501.38
2024-01-26T20:17:06.130Z,98500.54
2024-01-26T20:19:36.954Z,98511.52
2024-01-26T20:22:04.644Z,98508.78
2024-01-26T20:24:32.446Z,98507.76
2024-01-26T20:27:00.341Z,98506.88
2024-01-26T20:29:28.296Z,98512.27
2024-01-26T20:31:56.185Z,98509.06
2024-01-26T20:34:24.131Z,98507.69
2024-01-26T20:36:53.595Z,98506.64
2024-01-26T20:39:23.925Z,98518.10
2024-01-26T20:41:52.038Z,98517.23
2024-01-26T20:44:20.575Z,98520.23
2024-01-26T20:46:48.472Z,98524.59
2024-01-26T20:49:16.755Z,98526.39
2024-01-26T20:51:44.619Z,98532.71
2024-01-26T20:54:12.387Z,98524.62
2024-01-26T20:56:41.442Z,98527.70
2024-01-26T20:59:11.010Z,98526.80
2024-01-26T21:01:38.833Z,98529.23
2024-01-26T21:04:14.250Z,98523.79
2024-01-26T21:06:43.085Z,98518.34
2024-01-26T21:09:11.477Z,98519.11
2024-01-26T21:11:39.162Z,98522.41
2024-01-26T21:14:07.406Z,98530.65
2024-01-26T21:16:37.583Z,98528.72
2024-01-26T21:19:06.854Z,98533.38
2024-01-26T21:21:34.714Z,98533.16
2024-01-26T21:24:02.448Z,98538.86
2024-01-26T21:26:30.054Z,98532.70
2024-01-26T21:28:58.769Z,98529.11
2024-01-26T21:31:26.414Z,98537.34
2024-01-26T21:33:54.189Z,98543.02
2024-01-26T21:36:22.104Z,98544.31
2024-01-26T21:38:50.147Z,98546.02
2024-01-26T21:41:18.035Z,98548.03
2024-01-26T21:43:46.575Z,98548.38
2024-01-26T21:46:14.283Z,98549.20
2024-01-26T21:48:42.894Z,98549.16
2024-01-26T21:51:10.689Z,98553.18
2024-01-26T21:53:38.625Z,98559.63
2024-01-26T21:56:06.524Z,98558.94
2024-01-26T21:58:34.322Z,98565.86
2024-01-26T22:01:02.133Z,98568.48
2024-01-26T22:03:30.090Z,98574.98
2024-01-26T22:06:00.690Z,98590.63
2024-01-26T22:08:29.349Z,98581.83
2024-01-26T22:10:57.069Z,98599.59
2024-01-26T22:13:24.707Z,98604.98
2024-01-26T22:15:52.746Z,98615.30
2024-01-26T22:18:20.515Z,98625.48
2024-01-26T22:20:48.370Z,98613.45
2024-01-26T22:23:16.099Z,98632.61
2024-01-26T22:25:43.753Z,98629.63
2024-01-26T22:28:11.392Z,98623.00
2024-01-26T22:30:39.116Z,98634.16
2024-01-26T22:33:06.904Z,98644.96
2024-01-26T22:35:34.628Z,98654.14
2024-01-26T22:38:02.261Z,98660.23
2024-01-26T22:40:29.875Z,98664.13
2024-01-26T22:42:57.540Z,98668.78
2024-01-26T22:45:25.235Z,98668.69
2024-01-26T22:47:53.067Z,98674.35
2024-01-26T22:50:21.543Z,98672.59
2024-01-26T22:52:49.198Z,98677.25
2024-01-26T22:55:16.968Z,98672.48
2024-01-26T22:57:44.687Z,98675.65
2024-01-26T23:00:13.100Z,98682.90
2024-01-26T23:02:40.993Z,98682.06
2024-01-26T23:05:08.883Z,98679.58
2024-01-26T23:07:36.530Z,98682.83
2024-01-26T23:10:04.381Z,98693.16
2024-01-26T23:12:32.022Z,98698.95
2024-01-26T23:14:59.735Z,98718.81
2024-01-26T23:17:27.453Z,98738.86
2024-01-26T23:19:55.661Z,98751.83
2024-01-26T23:22:23.325Z,98744.77
2024-01-26T23:24:52.684Z,98758.04
2024-01-26T23:27:21.666Z,98754.27
2024-01-26T23:29:49.444Z,98762.13
2024-01-26T23:32:17.199Z,98776.07
2024-01-26T23:34:44.907Z,98774.56
2024-01-26T23:37:12.603Z,98767.95
2024-01-26T23:39:40.270Z,98771.16
2024-01-26T23:42:08.026Z,98765.92
2024-01-26T23:44:35.777Z,98789.42
2024-01-26T23:47:03.737Z,98792.97
2024-01-26T23:49:31.891Z,98799.43
2024-01-26T23:51:59.574Z,98819.75
2024-01-26T23:54:27.217Z,98827.58
2024-01-26T23:56:55.030Z,98833.18
2024-01-26T23:59:22.900Z,98846.90
